createdAt,value
2023-11-24T00:01:48.873Z,68.92
2023-11-24T00:04:21.826Z,68.75
2023-11-24T00:06:55.243Z,68.69
2023-11-24T00:09:30.319Z,68.58
2023-11-24T00:12:03.310Z,68.51
2023-11-24T00:14:37.537Z,68.36
2023-11-24T00:17:10.641Z,68.41
2023-11-24T00:19:43.486Z,68.28
2023-11-24T00:22:16.307Z,68.34
2023-11-24T00:24:53.066Z,68.22
2023-11-24T00:27:26.122Z,68.04
2023-11-24T00:30:00.412Z,67.96
2023-11-24T00:32:34.237Z,67.91
2023-11-24T00:35:07.946Z,67.93
2023-11-24T00:37:40.947Z,67.58
2023-11-24T00:40:15.108Z,67.58
2023-11-24T00:42:50.906Z,67.27
2023-11-24T00:45:25.140Z,67.25
2023-11-24T00:47:58.059Z,66.87
2023-11-24T00:50:30.874Z,66.78
2023-11-24T00:53:03.893Z,66.67
2023-11-24T00:55:36.737Z,66.58
2023-11-24T00:58:09.893Z,66.55
2023-11-24T01:00:44.235Z,66.50
2023-11-24T01:03:17.350Z,66.56
2023-11-24T01:05:50.912Z,66.46
2023-11-24T01:08:24.230Z,66.67
2023-11-24T01:10:58.834Z,66.64
2023-11-24T01:13:34.144Z,66.73
2023-11-24T01:16:09.229Z,66.99
2023-11-24T01:18:42.553Z,67.05
2023-11-24T01:21:18.176Z,67.32
2023-11-24T01:23:53.205Z,67.51
2023-11-24T01:26:26.828Z,67.78
2023-11-24T01:29:00.828Z,67.76
2023-11-24T01:31:34.962Z,68.08
2023-11-24T01:34:07.859Z,68.09
2023-11-24T01:36:40.763Z,68.18
2023-11-24T01:39:13.840Z,68.34
2023-11-24T01:41:47.064Z,68.32
2023-11-24T01:44:21.240Z,68.43
2023-11-24T01:46:56.180Z,68.46
2023-11-24T01:49:30.162Z,68.39
2023-11-24T01:52:04.054Z,68.42
2023-11-24T01:54:38.959Z,68.17
2023-11-24T01:57:13.526Z,67.80
2023-11-24T01:59:46.328Z,67.74
2023-11-24T02:02:21.972Z,67.61
2023-11-24T02:04:55.619Z,67.14
2023-11-24T02:07:28.535Z,66.93
2023-11-24T02:10:02.351Z,66.44
2023-11-24T02:12:35.287Z,66.44
2023-11-24T02:15:10.132Z,66.19
2023-11-24T02:17:44.424Z,66.01
2023-11-24T02:20:17.591Z,65.71
2023-11-24T02:22:52.136Z,65.61
2023-11-24T02:25:25.610Z,65.25
2023-11-24T02:27:58.496Z,65.20
2023-11-24T02:30:31.428Z,65.11
2023-11-24T02:33:05.035Z,64.90
2023-11-24T02:35:39.233Z,64.95
2023-11-24T02:38:13.566Z,64.80
2023-11-24T02:40:46.454Z,64.90
2023-11-24T02:43:19.323Z,65.04
2023-11-24T02:45:52.327Z,65.00
2023-11-24T02:48:25.253Z,65.05
2023-11-24T02:50:58.148Z,65.22
2023-11-24T02:53:32.767Z,65.13
2023-11-24T02:56:06.332Z,65.28
2023-11-24T02:58:39.132Z,65.18
2023-11-24T03:01:12.277Z,65.21
2023-11-24T03:03:46.254Z,65.04
2023-11-24T03:06:19.287Z,65.01
2023-11-24T03:08:53.500Z,65.04
2023-11-24T03:11:26.440Z,64.78
2023-11-24T03:13:59.490Z,64.63
2023-11-24T03:16:32.880Z,64.49
2023-11-24T03:19:05.901Z,64.32
2023-11-24T03:21:38.770Z,64.37
2023-11-24T03:24:13.044Z,64.38
2023-11-24T03:26:45.903Z,64.12
2023-11-24T03:29:18.733Z,63.88
2023-11-24T03:31:52.322Z,63.82
2023-11-24T03:34:25.239Z,63.85
2023-11-24T03:36:59.277Z,63.77
2023-11-24T03:39:33.618Z,63.78
2023-11-24T03:42:06.512Z,63.76
2023-11-24T03:44:40.171Z,63.83
2023-11-24T03:47:13.284Z,63.77
2023-11-24T03:49:46.472Z,63.86
2023-11-24T03:52:19.317Z,63.85
2023-11-24T03:54:53.666Z,63.96
2023-11-24T03:57:27.245Z,64.04
2023-11-24T04:00:00.191Z,63.95
2023-11-24T04:02:33.121Z,63.95
2023-11-24T04:05:06.969Z,64.03
2023-11-24T04:07:40.848Z,64.01
2023-11-24T04:10:15.096Z,63.97
2023-11-24T04:12:48.624Z,64.00
2023-11-24T04:15:21.730Z,63.82
2023-11-24T04:17:54.672Z,63.80
2023-11-24T04:20:27.639Z,63.95
2023-11-24T04:23:00.542Z,64.17
2023-11-24T04:25:34.911Z,63.99
2023-11-24T04:28:07.816Z,63.83
2023-11-24T04:30:41.343Z,63.88
2023-11-24T04:33:14.251Z,63.85
2023-11-24T04:35:48.117Z,63.85
2023-11-24T04:38:20.978Z,63.92
2023-11-24T04:40:55.261Z,63.87
2023-11-24T04:43:28.743Z,63.97
2023-11-24T04:46:01.721Z,64.04
2023-11-24T04:48:35.444Z,64.01
2023-11-24T04:51:08.385Z,64.02
2023-11-24T04:53:41.856Z,64.11
2023-11-24T04:56:16.129Z,64.45
2023-11-24T04:58:48.987Z,64.46
2023-11-24T05:01:21.918Z,64.80
2023-11-24T05:03:56.442Z,64.78
2023-11-24T05:06:29.434Z,65.00
2023-11-24T05:09:02.828Z,64.97
2023-11-24T05:11:37.149Z,65.09
2023-11-24T05:14:10.051Z,65.13
2023-11-24T05:16:43.084Z,65.17
2023-11-24T05:19:16.120Z,65.10
2023-11-24T05:21:49.075Z,64.99
2023-11-24T05:24:22.350Z,65.12
2023-11-24T05:26:57.631Z,65.15
2023-11-24T05:29:32.062Z,65.43
2023-11-24T05:32:05.658Z,65.53
2023-11-24T05:34:38.593Z,65.59
2023-11-24T05:37:11.529Z,65.74
2023-11-24T05:39:44.478Z,65.81
2023-11-24T05:42:18.834Z,65.82
2023-11-24T05:44:51.820Z,65.94
2023-11-24T05:47:24.918Z,65.69
2023-11-24T05:49:57.882Z,66.07
2023-11-24T05:52:30.832Z,65.72
2023-11-24T05:55:03.982Z,65.74
2023-11-24T05:57:38.599Z,65.51
2023-11-24T06:00:15.656Z,65.30
2023-11-24T06:02:48.671Z,65.00
2023-11-24T06:05:21.606Z,64.93
2023-11-24T06:07:56.437Z,64.99
2023-11-24T06:10:30.726Z,64.82
2023-11-24T06:13:05.653Z,64.72
2023-11-24T06:15:38.580Z,64.87
2023-11-24T06:18:11.714Z,64.84
2023-11-24T06:20:44.687Z,65.05
2023-11-24T06:23:17.611Z,64.83
2023-11-24T06:25:50.494Z,64.90
2023-11-24T06:28:26.038Z,64.77
2023-11-24T06:30:58.930Z,64.61
2023-11-24T06:33:31.948Z,64.59
2023-11-24T06:36:05.174Z,64.50
2023-11-24T06:38:38.108Z,64.16
2023-11-24T06:41:11.061Z,64.21
2023-11-24T06:43:45.369Z,63.96
2023-11-24T06:46:18.387Z,63.93
2023-11-24T06:48:54.232Z,63.74
2023-11-24T06:51:27.501Z,63.53
2023-11-24T06:54:00.690Z,63.40
2023-11-24T06:56:33.571Z,63.26
2023-11-24T06:59:08.824Z,63.13
2023-11-24T07:01:41.801Z,63.17
2023-11-24T07:04:14.969Z,63.23
2023-11-24T07:06:47.992Z,62.90
2023-11-24T07:09:22.043Z,62.93
2023-11-24T07:11:54.679Z,62.88
2023-11-24T07:14:28.967Z,62.63
2023-11-24T07:17:02.916Z,62.63
2023-11-24T07:19:35.981Z,62.58
2023-11-24T07:22:09.352Z,62.46
2023-11-24T07:24:43.995Z,62.46
2023-11-24T07:27:18.347Z,62.40
2023-11-24T07:29:52.981Z,62.35
2023-11-24T07:32:29.584Z,62.09
2023-11-24T07:35:03.131Z,61.79
2023-11-24T07:37:36.059Z,61.42
2023-11-24T07:40:15.432Z,60.91
2023-11-24T07:42:48.976Z,60.47
2023-11-24T07:45:23.596Z,60.33
2023-11-24T07:47:56.536Z,60.57
2023-11-24T07:50:29.497Z,60.70
2023-11-24T07:53:04.286Z,60.83
2023-11-24T07:55:37.096Z,60.91
2023-11-24T07:58:10.118Z,60.90
2023-11-24T08:00:45.552Z,60.79
2023-11-24T08:03:19.120Z,60.83
2023-11-24T08:05:53.597Z,60.92
2023-11-24T08:08:26.744Z,60.81
2023-11-24T08:10:59.680Z,60.93
2023-11-24T08:13:32.670Z,60.87
2023-11-24T08:16:08.146Z,60.92
2023-11-24T08:18:41.114Z,60.88
2023-11-24T08:21:14.630Z,60.91
2023-11-24T08:23:47.579Z,60.67
2023-11-24T08:26:22.455Z,60.50
2023-11-24T08:28:55.450Z,60.47
2023-11-24T08:31:30.198Z,60.27
2023-11-24T08:34:03.448Z,59.65
2023-11-24T08:36:36.496Z,59.10
2023-11-24T08:39:13.867Z,58.87
2023-11-24T08:41:50.176Z,58.77
2023-11-24T08:44:26.001Z,58.67
2023-11-24T08:47:00.463Z,58.53
2023-11-24T08:49:34.133Z,58.49
2023-11-24T08:52:07.407Z,58.54
2023-11-24T08:54:41.447Z,58.56
2023-11-24T08:57:14.436Z,58.61
2023-11-24T08:59:47.299Z,58.64
2023-11-24T09:02:23.387Z,58.82
2023-11-24T09:04:56.498Z,59.03
2023-11-24T09:07:29.620Z,59.16
2023-11-24T09:10:03.833Z,59.34
2023-11-24T09:12:36.877Z,59.64
2023-11-24T09:15:11.540Z,59.89
2023-11-24T09:17:45.868Z,60.44
2023-11-24T09:20:20.194Z,60.41
2023-11-24T09:22:53.198Z,60.89
2023-11-24T09:25:26.166Z,61.24
2023-11-24T09:27:59.095Z,61.52
2023-11-24T09:30:31.974Z,62.03
2023-11-24T09:33:08.992Z,62.16
2023-11-24T09:35:41.907Z,62.32
2023-11-24T09:38:15.140Z,62.40
2023-11-24T09:40:48.529Z,62.18
2023-11-24T09:43:21.903Z,62.26
2023-11-24T09:45:54.933Z,62.09
2023-11-24T09:48:33.379Z,62.19
2023-11-24T09:51:07.502Z,61.77
2023-11-24T09:53:44.085Z,61.64
2023-11-24T09:56:17.406Z,60.63
2023-11-24T09:58:51.034Z,60.41
2023-11-24T10:01:24.747Z,60.15
2023-11-24T10:04:01.784Z,59.96
2023-11-24T10:06:36.589Z,59.82
2023-11-24T10:09:11.769Z,59.75
2023-11-24T10:11:44.947Z,59.54
2023-11-24T10:14:17.901Z,59.73
2023-11-24T10:16:51.179Z,59.69
2023-11-24T10:19:28.688Z,59.51
2023-11-24T10:22:01.648Z,59.39
2023-11-24T10:24:36.815Z,59.39
2023-11-24T10:27:22.019Z,59.04
2023-11-24T10:29:54.923Z,59.12
2023-11-24T10:32:28.563Z,58.95
2023-11-24T10:35:02.913Z,59.00
2023-11-24T10:37:39.077Z,59.06
2023-11-24T10:40:16.935Z,58.76
2023-11-24T10:42:51.932Z,58.75
2023-11-24T10:45:25.399Z,58.57
2023-11-24T10:48:10.929Z,58.44
2023-11-24T10:50:51.451Z,58.33
2023-11-24T10:53:27.951Z,58.64
2023-11-24T10:56:04.686Z,58.76
2023-11-24T10:58:38.132Z,58.62
2023-11-24T11:01:11.848Z,58.64
2023-11-24T11:03:45.232Z,58.71
2023-11-24T11:06:30.721Z,58.89
2023-11-24T11:09:20.719Z,58.95
2023-11-24T11:12:20.525Z,58.98
2023-11-24T11:14:54.168Z,59.10
2023-11-24T11:17:27.769Z,59.14
2023-11-24T11:20:01.493Z,57.67
2023-11-24T11:22:37.886Z,55.42
2023-11-24T11:25:39.598Z,54.14
2023-11-24T11:28:36.644Z,53.86
2023-11-24T11:31:24.327Z,53.76
2023-11-24T11:34:11.669Z,53.50
2023-11-24T11:37:06.229Z,54.16
2023-11-24T11:39:54.424Z,54.51
2023-11-24T11:42:51.995Z,55.15
2023-11-24T11:45:31.180Z,55.60
2023-11-24T11:48:07.115Z,56.11
2023-11-24T11:50:51.125Z,56.34
2023-11-24T11:56:19.621Z,56.74
2023-11-24T11:58:52.489Z,57.06
2023-11-24T12:01:25.564Z,57.16
2023-11-24T12:03:58.527Z,57.37
2023-11-24T12:06:31.686Z,57.10
2023-11-24T12:09:06.759Z,56.51
2023-11-24T12:11:41.429Z,54.59
2023-11-24T12:14:14.687Z,51.57
2023-11-24T12:16:47.704Z,49.19
2023-11-24T12:19:20.630Z,48.08
2023-11-24T12:21:53.638Z,47.63
2023-11-24T12:24:28.480Z,48.05
2023-11-24T12:27:03.552Z,48.85
2023-11-24T12:29:39.595Z,49.63
2023-11-24T12:32:13.318Z,50.43
2023-11-24T12:34:46.964Z,51.82
2023-11-24T12:37:19.978Z,51.97
2023-11-24T12:39:53.058Z,52.40
2023-11-24T12:42:30.471Z,52.36
2023-11-24T12:45:04.106Z,52.03
2023-11-24T12:47:41.873Z,52.02
2023-11-24T12:50:16.779Z,52.01
2023-11-24T12:52:51.199Z,52.21
2023-11-24T12:55:24.222Z,52.63
2023-11-24T12:57:58.585Z,53.06
2023-11-24T13:00:31.693Z,53.32
2023-11-24T13:03:04.659Z,53.62
2023-11-24T13:05:39.412Z,53.80
2023-11-24T13:08:12.538Z,54.19
2023-11-24T13:10:49.050Z,54.38
2023-11-24T13:13:23.541Z,54.31
2023-11-24T13:15:56.598Z,54.49
2023-11-24T13:18:30.258Z,54.63
2023-11-24T13:21:03.170Z,54.83
2023-11-24T13:23:36.084Z,55.00
2023-11-24T13:26:11.423Z,55.07
2023-11-24T13:28:45.648Z,55.33
2023-11-24T13:31:18.512Z,55.45
2023-11-24T13:33:51.620Z,55.62
2023-11-24T13:36:24.506Z,55.47
2023-11-24T13:38:57.327Z,55.44
2023-11-24T13:41:31.438Z,55.77
2023-11-24T13:44:06.089Z,55.79
2023-11-24T13:46:39.306Z,55.87
2023-11-24T13:49:14.741Z,56.22
2023-11-24T13:51:48.186Z,56.38
2023-11-24T13:54:24.621Z,56.89
2023-11-24T13:56:58.117Z,57.62
2023-11-24T13:59:33.031Z,57.84
2023-11-24T14:02:07.608Z,58.35
2023-11-24T14:04:40.676Z,58.75
2023-11-24T14:07:15.576Z,59.03
2023-11-24T14:09:49.959Z,59.55
2023-11-24T14:12:23.003Z,59.55
2023-11-24T14:14:57.784Z,59.92
2023-11-24T14:17:30.912Z,59.96
2023-11-24T14:20:04.192Z,60.34
2023-11-24T14:22:37.529Z,60.55
2023-11-24T14:25:12.398Z,60.95
2023-11-24T14:27:45.889Z,60.98
2023-11-24T14:30:20.262Z,61.19
2023-11-24T14:32:53.489Z,61.34
2023-11-24T14:35:26.381Z,61.36
2023-11-24T14:37:59.245Z,61.64
2023-11-24T14:40:33.871Z,61.67
2023-11-24T14:43:06.982Z,62.04
2023-11-24T14:45:41.782Z,62.60
2023-11-24T14:48:17.977Z,62.55
2023-11-24T14:50:51.306Z,62.72
2023-11-24T14:53:24.585Z,62.84
2023-11-24T14:55:57.439Z,63.16
2023-11-24T14:58:30.551Z,63.23
2023-11-24T15:01:05.334Z,63.49
2023-11-24T15:03:39.673Z,63.44
2023-11-24T15:06:15.484Z,63.66
2023-11-24T15:08:50.083Z,63.58
2023-11-24T15:11:34.598Z,63.70
2023-11-24T15:14:14.524Z,63.71
2023-11-24T15:16:55.882Z,63.83
2023-11-24T15:19:29.517Z,63.73
2023-11-24T15:22:06.206Z,63.76
2023-11-24T15:24:39.782Z,63.62
2023-11-24T15:27:14.786Z,63.65
2023-11-24T15:29:47.707Z,63.71
2023-11-24T15:32:22.507Z,63.59
2023-11-24T15:34:56.702Z,63.57
2023-11-24T15:37:29.611Z,63.45
2023-11-24T15:40:02.542Z,63.42
2023-11-24T15:42:35.400Z,63.25
2023-11-24T15:45:11.835Z,63.08
2023-11-24T15:47:57.264Z,63.11
2023-11-24T15:50:35.837Z,62.84
2023-11-24T15:53:08.947Z,62.88
2023-11-24T15:55:45.766Z,62.87
2023-11-24T15:58:19.127Z,62.87
2023-11-24T16:00:52.196Z,62.82
2023-11-24T16:03:26.605Z,62.77
2023-11-24T16:06:05.764Z,62.90
2023-11-24T16:08:45.626Z,62.68
2023-11-24T16:11:25.647Z,62.87
2023-11-24T16:13:59.659Z,62.74
2023-11-24T16:16:32.638Z,62.58
2023-11-24T16:19:07.008Z,62.71
2023-11-24T16:21:43.059Z,62.64
2023-11-24T16:24:16.048Z,62.84
2023-11-24T16:26:49.618Z,62.70
2023-11-24T16:29:23.780Z,62.71
2023-11-24T16:31:58.113Z,62.73
2023-11-24T16:34:32.428Z,62.73
2023-11-24T16:37:05.757Z,62.69
2023-11-24T16:39:38.692Z,62.62
2023-11-24T16:42:11.564Z,62.59
2023-11-24T16:44:46.825Z,62.75
2023-11-24T16:47:19.833Z,62.72
2023-11-24T16:49:54.277Z,62.77
2023-11-24T16:52:28.213Z,62.60
2023-11-24T16:55:00.948Z,62.38
2023-11-24T16:57:35.047Z,62.44
2023-11-24T17:00:08.982Z,62.60
2023-11-24T17:02:41.913Z,62.58
2023-11-24T17:05:16.568Z,62.64
2023-11-24T17:07:49.414Z,62.63
2023-11-24T17:10:23.877Z,62.89
2023-11-24T17:12:57.242Z,62.74
2023-11-24T17:15:40.372Z,62.87
2023-11-24T17:18:14.061Z,62.86
2023-11-24T17:20:49.223Z,62.91
2023-11-24T17:23:22.200Z,62.91
2023-11-24T17:25:55.733Z,62.92
2023-11-24T17:28:29.604Z,62.80
2023-11-24T17:31:05.446Z,62.53
2023-11-24T17:33:39.555Z,62.67
2023-11-24T17:36:15.289Z,62.74
2023-11-24T17:38:48.289Z,62.66
2023-11-24T17:41:21.162Z,62.60
2023-11-24T17:43:54.323Z,62.68
2023-11-24T17:46:32.568Z,62.62
2023-11-24T17:49:19.950Z,62.44
2023-11-24T17:52:35.842Z,62.44
2023-11-24T17:55:13.154Z,62.30
2023-11-24T17:57:50.136Z,62.28
2023-11-24T18:03:15.928Z,62.38
2023-11-24T18:05:49.557Z,62.38
2023-11-24T18:08:24.022Z,62.44
2023-11-24T18:10:57.136Z,62.61
2023-11-24T18:13:30.072Z,62.50
2023-11-24T18:16:03.838Z,62.54
2023-11-24T18:18:36.905Z,62.60
2023-11-24T18:21:09.934Z,62.50
2023-11-24T18:23:45.943Z,62.68
2023-11-24T18:26:19.383Z,62.75
2023-11-24T18:28:53.098Z,62.55
2023-11-24T18:31:26.227Z,62.59
2023-11-24T18:33:59.606Z,62.58
2023-11-24T18:36:32.543Z,62.69
2023-11-24T18:39:13.193Z,62.73
2023-11-24T18:41:46.061Z,62.79
2023-11-24T18:44:18.978Z,62.53
2023-11-24T18:46:52.002Z,62.60
2023-11-24T18:49:25.458Z,62.69
2023-11-24T18:51:58.507Z,62.65
2023-11-24T18:54:33.022Z,62.57
2023-11-24T18:57:07.964Z,62.64
2023-11-24T18:59:40.879Z,62.57
2023-11-24T19:02:16.163Z,62.85
2023-11-24T19:04:50.399Z,62.81
2023-11-24T19:07:24.061Z,62.89
2023-11-24T19:09:58.736Z,62.92
2023-11-24T19:12:31.959Z,63.08
2023-11-24T19:15:08.841Z,63.16
2023-11-24T19:17:43.023Z,63.19
2023-11-24T19:20:17.136Z,63.12
2023-11-24T19:22:49.888Z,62.83
2023-11-24T19:25:24.334Z,62.88
2023-11-24T19:27:57.435Z,62.88
2023-11-24T19:30:30.453Z,63.09
2023-11-24T19:33:03.596Z,62.99
2023-11-24T19:35:36.549Z,63.01
2023-11-24T19:38:09.561Z,63.04
2023-11-24T19:40:43.995Z,63.15
2023-11-24T19:43:17.061Z,63.06
2023-11-24T19:45:50.163Z,62.91
2023-11-24T19:48:23.124Z,63.16
2023-11-24T19:50:56.057Z,63.30
2023-11-24T19:53:28.960Z,63.30
2023-11-24T19:56:03.207Z,63.37
2023-11-24T19:58:36.137Z,63.40
2023-11-24T20:01:09.098Z,63.46
2023-11-24T20:03:42.165Z,63.57
2023-11-24T20:06:15.124Z,63.56
2023-11-24T20:08:48.124Z,63.49
2023-11-24T20:11:22.763Z,63.66
2023-11-24T20:13:55.728Z,63.62
2023-11-24T20:16:29.316Z,63.64
2023-11-24T20:19:02.534Z,63.62
2023-11-24T20:21:35.497Z,63.64
2023-11-24T20:24:09.808Z,63.56
2023-11-24T20:26:44.108Z,63.59
2023-11-24T20:29:20.312Z,63.73
2023-11-24T20:31:57.346Z,63.54
2023-11-24T20:34:30.362Z,63.61
2023-11-24T20:37:03.516Z,63.96
2023-11-24T20:39:36.431Z,63.81
2023-11-24T20:42:10.767Z,63.98
2023-11-24T20:44:43.698Z,63.94
2023-11-24T20:47:17.094Z,63.86
2023-11-24T20:49:51.515Z,63.98
2023-11-24T20:52:24.444Z,64.03
2023-11-24T20:54:57.438Z,64.11
2023-11-24T20:57:31.700Z,64.26
2023-11-24T21:00:11.235Z,64.49
2023-11-24T21:02:44.317Z,64.55
2023-11-24T21:05:17.404Z,64.62
2023-11-24T21:07:51.448Z,64.67
2023-11-24T21:10:24.138Z,64.08
2023-11-24T21:12:58.418Z,64.53
2023-11-24T21:15:31.312Z,64.92
2023-11-24T21:18:06.213Z,65.10
2023-11-24T21:20:39.367Z,65.40
2023-11-24T21:23:13.191Z,65.47
2023-11-24T21:25:46.213Z,65.59
2023-11-24T21:28:21.030Z,65.82
2023-11-24T21:30:54.013Z,65.88
2023-11-24T21:33:26.987Z,65.97
2023-11-24T21:36:00.381Z,65.79
2023-11-24T21:38:33.467Z,65.91
2023-11-24T21:41:06.798Z,65.90
2023-11-24T21:43:41.689Z,65.96
2023-11-24T21:46:20.141Z,66.13
2023-11-24T21:48:53.204Z,66.09
2023-11-24T21:51:26.643Z,66.08
2023-11-24T21:54:00.158Z,66.13
2023-11-24T21:56:33.624Z,65.98
2023-11-24T21:59:09.937Z,66.11
2023-11-24T22:01:43.280Z,66.18
2023-11-24T22:04:16.323Z,66.07
2023-11-24T22:06:49.396Z,66.17
2023-11-24T22:09:22.306Z,66.16
2023-11-24T22:11:55.287Z,66.12
2023-11-24T22:14:30.083Z,66.28
2023-11-24T22:17:06.076Z,66.21
2023-11-24T22:19:39.878Z,66.31
2023-11-24T22:22:12.751Z,66.23
2023-11-24T22:24:45.694Z,66.31
2023-11-24T22:27:19.358Z,66.20
2023-11-24T22:30:01.459Z,66.19
2023-11-24T22:32:37.726Z,66.24
2023-11-24T22:35:10.943Z,66.17
2023-11-24T22:37:43.965Z,66.44
2023-11-24T22:40:17.269Z,66.20
2023-11-24T22:42:52.324Z,66.25
2023-11-24T22:45:26.578Z,66.48
2023-11-24T22:47:59.547Z,66.47
2023-11-24T22:50:32.449Z,66.25
2023-11-24T22:53:05.407Z,66.43
2023-11-24T22:55:38.430Z,66.28
2023-11-24T22:58:12.292Z,66.36
2023-11-24T23:00:47.329Z,66.24
2023-11-24T23:03:20.452Z,66.31
2023-11-24T23:05:53.634Z,66.32
2023-11-24T23:08:27.549Z,66.26
2023-11-24T23:11:01.065Z,66.05
2023-11-24T23:13:34.286Z,66.17
2023-11-24T23:16:10.888Z,66.15
2023-11-24T23:18:45.802Z,66.17
2023-11-24T23:21:22.048Z,66.27
2023-11-24T23:23:57.135Z,66.44
2023-11-24T23:26:30.177Z,66.30
2023-11-24T23:29:04.786Z,66.39
2023-11-24T23:31:40.047Z,66.50
2023-11-24T23:34:13.588Z,66.46
2023-11-24T23:36:46.553Z,66.38
2023-11-24T23:39:19.970Z,66.35
2023-11-24T23:41:52.974Z,66.30
2023-11-24T23:44:25.867Z,66.24
2023-11-24T23:47:00.217Z,66.46
2023-11-24T23:49:33.573Z,66.66
2023-11-24T23:52:07.106Z,66.45
2023-11-24T23:54:40.600Z,66.35
2023-11-24T23:57:13.482Z,66.42
2023-11-24T23:59:46.407Z,66.32
